Weather at Langkawi International Airport

Public forecast

Using degrees Celsius for public forecast. Weather courtesy of forecast.io.

Current aviation weather report (METAR) for Langkawi International Airport

Report is more than 6 hours old.

2022/11/14 15:00 (retrieved 2 years ago)

WMKL 141500Z 00000KT 9999 -RA FEW010 FEW017CB SCT025 26/25 Q1010 RETSRA

Aviation forecast (TAF) for Langkawi International Airport

Forecast is more than 12 hours old.

2023/02/22 18:00 (retrieved 1 year ago)

TAF WMKL 221700Z 2218/2318 03006KT 9999 FEW026